createdAt,value
2023-05-19T00:00:38.394Z,100354.91
2023-05-19T00:04:55.158Z,100355.87
2023-05-19T00:09:13.394Z,100350.84
2023-05-19T00:13:29.776Z,100357.59
2023-05-19T00:17:46.066Z,100360.22
2023-05-19T00:22:02.205Z,100352.63
2023-05-19T00:26:18.477Z,100354.12
2023-05-19T00:30:34.710Z,100350.75
2023-05-19T00:34:50.891Z,100346.31
2023-05-19T00:39:07.516Z,100349.59
2023-05-19T00:43:23.763Z,100349.13
2023-05-19T00:47:40.487Z,100349.13
2023-05-19T00:51:57.205Z,100353.94
2023-05-19T00:56:13.493Z,100359.37
2023-05-19T01:00:30.911Z,100356.69
2023-05-19T01:04:47.873Z,100359.66
2023-05-19T01:09:04.618Z,100356.22
2023-05-19T01:13:21.000Z,100356.47
2023-05-19T01:17:49.648Z,100351.56
2023-05-19T01:22:45.141Z,100350.97
2023-05-19T01:27:38.533Z,100349.53
2023-05-19T01:31:56.873Z,100340.50
2023-05-19T01:36:14.674Z,100350.72
2023-05-19T01:40:31.401Z,100348.53
2023-05-19T01:44:48.164Z,100343.97
2023-05-19T01:49:04.833Z,100346.63
2023-05-19T01:53:21.169Z,100341.00
2023-05-19T01:57:43.062Z,100350.47
2023-05-19T02:02:01.437Z,100355.06
2023-05-19T02:06:20.669Z,100349.34
2023-05-19T02:10:37.912Z,100358.22
2023-05-19T02:15:19.173Z,100359.94
2023-05-19T02:19:42.423Z,100355.34
2023-05-19T02:23:58.704Z,100359.00
2023-05-19T02:28:14.918Z,100349.03
2023-05-19T02:32:31.758Z,100343.00
2023-05-19T02:36:50.926Z,100344.03
2023-05-19T02:41:07.115Z,100342.56
2023-05-19T02:45:23.403Z,100349.19
2023-05-19T02:49:40.246Z,100351.16
2023-05-19T02:53:56.382Z,100352.28
2023-05-19T02:58:13.051Z,100351.06
2023-05-19T03:02:29.757Z,100350.09
2023-05-19T03:06:46.891Z,100362.97
2023-05-19T03:11:03.984Z,100352.87
2023-05-19T03:15:23.023Z,100355.25
2023-05-19T03:19:39.319Z,100357.69
2023-05-19T03:23:55.598Z,100361.88
2023-05-19T03:28:11.811Z,100358.00
2023-05-19T03:32:28.136Z,100361.09
2023-05-19T03:36:45.286Z,100372.87
2023-05-19T03:41:01.473Z,100369.00
2023-05-19T03:45:17.659Z,100360.56
2023-05-19T03:49:33.866Z,100361.72
2023-05-19T03:53:50.281Z,100360.22
2023-05-19T03:58:06.548Z,100365.44
2023-05-19T04:02:22.818Z,100363.53
2023-05-19T04:06:39.183Z,100361.41
2023-05-19T04:10:55.367Z,100366.25
2023-05-19T04:15:12.248Z,100364.03
2023-05-19T04:19:28.623Z,100369.66
2023-05-19T04:23:44.977Z,100370.41
2023-05-19T04:28:01.208Z,100374.53
2023-05-19T04:32:20.140Z,100365.13
2023-05-19T04:36:36.866Z,100374.09
2023-05-19T04:40:53.095Z,100383.28
2023-05-19T04:45:14.331Z,100380.31
2023-05-19T04:49:30.546Z,100385.44
2023-05-19T04:53:46.751Z,100391.53
2023-05-19T04:58:03.036Z,100397.16
2023-05-19T05:02:19.267Z,100395.09
2023-05-19T05:06:38.608Z,100397.31
2023-05-19T05:10:55.176Z,100395.41
2023-05-19T05:15:12.274Z,100401.56
2023-05-19T05:19:29.208Z,100403.69
2023-05-19T05:23:45.816Z,100396.41
2023-05-19T05:28:05.447Z,100405.28
2023-05-19T05:32:21.909Z,100413.31
2023-05-19T05:36:38.119Z,100415.22
2023-05-19T05:40:54.362Z,100427.59
2023-05-19T05:45:10.839Z,100413.50
2023-05-19T05:49:27.324Z,100421.59
2023-05-19T05:53:45.170Z,100422.84
2023-05-19T05:58:02.577Z,100425.25
2023-05-19T06:02:19.383Z,100426.31
2023-05-19T06:06:36.471Z,100432.28
2023-05-19T06:10:52.727Z,100435.16
2023-05-19T06:15:09.207Z,100433.22
2023-05-19T06:19:25.707Z,100438.66
2023-05-19T06:23:42.487Z,100431.59
2023-05-19T06:27:58.715Z,100446.16
2023-05-19T06:32:15.347Z,100442.47
2023-05-19T06:36:31.651Z,100437.25
2023-05-19T06:40:48.182Z,100444.47
2023-05-19T06:45:04.585Z,100449.50
2023-05-19T06:49:20.981Z,100450.06
2023-05-19T06:53:37.130Z,100450.91
2023-05-19T06:57:53.333Z,100456.69
2023-05-19T07:02:09.934Z,100456.81
2023-05-19T07:06:26.325Z,100458.06
2023-05-19T07:10:42.502Z,100474.25
2023-05-19T07:14:58.671Z,100474.66
2023-05-19T07:19:15.207Z,100473.09
2023-05-19T07:23:31.440Z,100475.97
2023-05-19T07:27:47.932Z,100479.41
2023-05-19T07:32:04.394Z,100471.44
2023-05-19T07:36:21.163Z,100464.41
2023-05-19T07:40:37.341Z,100475.62
2023-05-19T07:44:53.679Z,100472.78
2023-05-19T07:49:10.670Z,100479.72
2023-05-19T07:53:28.275Z,100473.63
2023-05-19T07:57:44.922Z,100474.22
2023-05-19T08:02:01.463Z,100477.22
2023-05-19T08:06:17.835Z,100474.00
2023-05-19T08:10:34.672Z,100467.34
2023-05-19T08:14:51.551Z,100461.75
2023-05-19T08:19:08.055Z,100458.28
2023-05-19T08:23:24.435Z,100454.09
2023-05-19T08:27:40.765Z,100444.69
2023-05-19T08:31:58.660Z,100441.88
2023-05-19T08:36:15.077Z,100446.00
2023-05-19T08:40:32.161Z,100443.84
2023-05-19T08:44:48.618Z,100450.53
2023-05-19T08:49:12.413Z,100454.84
2023-05-19T08:53:34.854Z,100450.81
2023-05-19T08:57:51.482Z,100449.69
2023-05-19T09:02:08.446Z,100459.66
2023-05-19T09:06:25.764Z,100453.78
2023-05-19T09:10:42.028Z,100445.06
2023-05-19T09:14:59.469Z,100446.78
2023-05-19T09:19:16.287Z,100438.81
2023-05-19T09:23:36.392Z,100434.75
2023-05-19T09:27:54.746Z,100435.31
2023-05-19T09:32:11.257Z,100436.13
2023-05-19T09:36:29.127Z,100438.72
2023-05-19T09:40:45.504Z,100435.19
2023-05-19T09:45:03.551Z,100428.47
2023-05-19T09:49:24.113Z,100427.66
2023-05-19T09:53:40.424Z,100427.66
2023-05-19T09:57:56.893Z,100431.56
2023-05-19T10:02:16.921Z,100425.94
2023-05-19T10:06:33.201Z,100416.47
2023-05-19T10:10:49.681Z,100423.72
2023-05-19T10:15:10.847Z,100408.47
2023-05-19T10:19:30.420Z,100408.09
2023-05-19T10:23:46.612Z,100397.97
2023-05-19T10:28:14.112Z,100397.28
2023-05-19T10:32:32.932Z,100387.41
2023-05-19T10:36:50.810Z,100387.00
2023-05-19T10:41:39.949Z,100382.56
2023-05-19T10:45:57.456Z,100368.28
2023-05-19T10:50:13.849Z,100363.84
2023-05-19T10:54:48.054Z,100360.66
2023-05-19T10:59:04.695Z,100352.03
2023-05-19T11:03:24.473Z,100340.25
2023-05-19T11:07:44.417Z,100347.72
2023-05-19T11:12:04.047Z,100334.81
2023-05-19T11:16:27.214Z,100338.91
2023-05-19T11:20:44.515Z,100337.66
2023-05-19T11:25:00.986Z,100333.62
2023-05-19T11:29:17.159Z,100331.63
2023-05-19T11:33:33.963Z,100331.34
2023-05-19T11:37:52.567Z,100331.34
2023-05-19T11:42:11.918Z,100331.16
2023-05-19T11:46:28.382Z,100340.16
2023-05-19T11:50:44.847Z,100324.19
2023-05-19T11:55:01.733Z,100323.34
2023-05-19T11:59:17.994Z,100315.09
2023-05-19T12:03:34.436Z,100314.38
2023-05-19T12:07:52.462Z,100306.84
2023-05-19T12:12:08.910Z,100308.19
2023-05-19T12:16:33.482Z,100303.72
2023-05-19T12:20:50.056Z,100307.94
2023-05-19T12:25:06.568Z,100298.59
2023-05-19T12:29:23.354Z,100288.66
2023-05-19T12:33:39.826Z,100291.28
2023-05-19T12:37:57.083Z,100286.00
2023-05-19T12:42:13.848Z,100283.69
2023-05-19T12:46:33.247Z,100284.22
2023-05-19T12:50:51.747Z,100272.41
2023-05-19T12:55:09.491Z,100274.37
2023-05-19T12:59:37.319Z,100263.50
2023-05-19T13:03:54.994Z,100258.03
2023-05-19T13:08:30.180Z,100263.09
2023-05-19T13:12:46.505Z,100249.19
2023-05-19T13:17:03.514Z,100247.37
2023-05-19T13:21:19.792Z,100247.31
2023-05-19T13:25:36.430Z,100250.78
2023-05-19T13:29:52.772Z,100235.25
2023-05-19T13:34:09.188Z,100230.03
2023-05-19T13:38:25.470Z,100225.06
2023-05-19T13:42:41.881Z,100209.16
2023-05-19T13:46:58.135Z,100208.44
2023-05-19T13:51:14.505Z,100202.78
2023-05-19T13:55:30.904Z,100203.19
2023-05-19T14:00:01.032Z,100198.72
2023-05-19T14:04:19.694Z,100202.47
2023-05-19T14:08:36.552Z,100198.75
2023-05-19T14:13:25.359Z,100199.75
2023-05-19T14:17:30.336Z,100201.19
2023-05-19T14:21:46.601Z,100201.59
2023-05-19T14:26:02.826Z,100206.84
2023-05-19T14:30:18.976Z,100213.69
2023-05-19T14:34:35.584Z,100200.47
2023-05-19T14:38:51.786Z,100206.91
2023-05-19T14:43:08.520Z,100199.22
2023-05-19T14:47:26.396Z,100193.22
2023-05-19T14:51:43.467Z,100199.63
2023-05-19T14:55:59.660Z,100189.91
2023-05-19T15:00:17.006Z,100196.66
2023-05-19T15:04:33.300Z,100190.28
2023-05-19T15:08:49.443Z,100195.78
2023-05-19T15:13:05.686Z,100190.16
2023-05-19T15:17:22.079Z,100188.97
2023-05-19T15:21:38.359Z,100191.75
2023-05-19T15:25:54.592Z,100184.09
2023-05-19T15:30:11.050Z,100186.00
2023-05-19T15:34:27.866Z,100192.03
2023-05-19T15:38:44.000Z,100188.25
2023-05-19T15:43:00.267Z,100183.69
2023-05-19T15:47:16.460Z,100188.56
2023-05-19T15:51:32.780Z,100180.13
2023-05-19T15:55:49.066Z,100181.41
2023-05-19T16:00:05.746Z,100179.03
2023-05-19T16:04:22.300Z,100185.59
2023-05-19T16:08:38.818Z,100184.81
2023-05-19T16:12:55.718Z,100184.75
2023-05-19T16:17:14.452Z,100188.19
2023-05-19T16:21:32.399Z,100195.47
2023-05-19T16:25:48.946Z,100198.41
2023-05-19T16:30:06.094Z,100192.53
2023-05-19T16:34:22.577Z,100200.56
2023-05-19T16:38:38.858Z,100197.88
2023-05-19T16:42:55.256Z,100200.00
2023-05-19T16:47:11.700Z,100205.44
2023-05-19T16:51:28.139Z,100201.75
2023-05-19T16:55:44.782Z,100200.28
2023-05-19T17:00:01.140Z,100201.34
2023-05-19T17:04:17.629Z,100204.91
2023-05-19T17:08:34.363Z,100202.41
2023-05-19T17:12:50.974Z,100210.72
2023-05-19T17:17:08.129Z,100207.91
2023-05-19T17:21:24.497Z,100206.41
2023-05-19T17:25:41.424Z,100212.81
2023-05-19T17:29:57.942Z,100206.59
2023-05-19T17:34:16.039Z,100204.06
2023-05-19T17:38:32.656Z,100210.19
2023-05-19T17:42:48.897Z,100214.00
2023-05-19T17:47:07.417Z,100214.72
2023-05-19T17:51:24.037Z,100216.53
2023-05-19T17:55:41.131Z,100224.53
2023-05-19T17:59:57.609Z,100223.22
2023-05-19T18:04:16.036Z,100217.84
2023-05-19T18:08:36.072Z,100224.34
2023-05-19T18:12:52.421Z,100229.56
2023-05-19T18:17:08.705Z,100229.41
2023-05-19T18:21:25.526Z,100224.06
2023-05-19T18:25:41.952Z,100229.63
2023-05-19T18:29:58.267Z,100243.22
2023-05-19T18:34:14.609Z,100240.56
2023-05-19T18:38:30.992Z,100237.34
2023-05-19T18:42:48.037Z,100243.75
2023-05-19T18:47:04.379Z,100242.44
2023-05-19T18:51:21.685Z,100246.63
2023-05-19T18:55:38.654Z,100246.19
2023-05-19T18:59:54.888Z,100256.94
2023-05-19T19:04:11.432Z,100252.91
2023-05-19T19:08:27.697Z,100258.00
2023-05-19T19:12:43.872Z,100261.00
2023-05-19T19:17:00.098Z,100262.41
2023-05-19T19:21:16.387Z,100259.81
2023-05-19T19:25:33.123Z,100259.69
2023-05-19T19:29:49.456Z,100270.63
2023-05-19T19:34:09.313Z,100278.91
2023-05-19T19:38:25.808Z,100282.16
2023-05-19T19:42:42.098Z,100276.78
2023-05-19T19:46:58.505Z,100285.38
2023-05-19T19:51:14.700Z,100293.84
2023-05-19T19:55:31.120Z,100286.66
2023-05-19T19:59:47.389Z,100295.84
2023-05-19T20:04:04.296Z,100296.09
2023-05-19T20:08:20.797Z,100292.59
2023-05-19T20:12:37.370Z,100297.78
2023-05-19T20:16:53.604Z,100307.72
2023-05-19T20:21:09.826Z,100314.09
2023-05-19T20:25:26.358Z,100312.00
2023-05-19T20:29:42.662Z,100309.38
2023-05-19T20:33:59.498Z,100304.03
2023-05-19T20:38:17.656Z,100321.75
2023-05-19T20:42:34.274Z,100315.81
2023-05-19T20:46:56.158Z,100313.00
2023-05-19T20:51:14.936Z,100302.03
2023-05-19T20:55:31.583Z,100305.94
2023-05-19T20:59:55.130Z,100304.91
2023-05-19T21:04:11.845Z,100298.44
2023-05-19T21:08:28.342Z,100300.78
2023-05-19T21:12:44.772Z,100299.25
2023-05-19T21:17:06.155Z,100290.78
2023-05-19T21:21:22.530Z,100293.12
2023-05-19T21:25:39.590Z,100295.44
2023-05-19T21:29:56.691Z,100296.06
2023-05-19T21:34:13.020Z,100317.44
2023-05-19T21:38:29.339Z,100313.44
2023-05-19T21:42:46.218Z,100313.00
2023-05-19T21:47:02.517Z,100310.78
2023-05-19T21:51:18.670Z,100304.41
2023-05-19T21:55:35.149Z,100296.69
2023-05-19T21:59:51.385Z,100289.22
2023-05-19T22:04:07.856Z,100273.66
2023-05-19T22:08:24.763Z,100277.97
2023-05-19T22:12:41.015Z,100287.75
2023-05-19T22:16:57.312Z,100300.12
2023-05-19T22:21:13.486Z,100297.03
2023-05-19T22:25:29.780Z,100290.53
2023-05-19T22:29:46.006Z,100278.56
2023-05-19T22:34:02.225Z,100276.31
2023-05-19T22:38:18.492Z,100269.69
2023-05-19T22:42:34.706Z,100273.59
2023-05-19T22:46:50.916Z,100260.72
2023-05-19T22:51:07.112Z,100245.16
2023-05-19T22:55:23.361Z,100240.16
2023-05-19T22:59:40.248Z,100237.09
2023-05-19T23:03:56.388Z,100238.75
2023-05-19T23:08:12.938Z,100236.41
2023-05-19T23:12:29.145Z,100236.59
2023-05-19T23:16:45.490Z,100236.19
2023-05-19T23:21:01.766Z,100234.13
2023-05-19T23:25:18.052Z,100216.09
2023-05-19T23:29:34.300Z,100214.66
2023-05-19T23:33:50.627Z,100218.88
2023-05-19T23:38:06.815Z,100223.66
2023-05-19T23:42:23.020Z,100215.38
2023-05-19T23:46:39.267Z,100204.66
2023-05-19T23:50:55.616Z,100204.66
2023-05-19T23:55:13.745Z,100190.78
2023-05-19T23:59:29.977Z,100193.03
